Airport View

Enter AWOS ICAO identifier for current METAR.

ex. KFNL

KTYL 112150Z AUTO 20011KT 10SM CLR 10/M03 A3020 RMK AO2

11 Dec 2019 21:53

Frequency: 119.075

Phone: 928-536-2609

Other Area AWOS: KSOW - KSJN - KJTC - KINW

TAF KINW 111720Z 1118/1218 VRB06KT P6SM SCT200